sensor_id;sensor_type;location;lat;lon;timestamp;temperature;humidity
30037;DHT22;36325;51.512;-0.382;2023-04-03T00:01:25;5.40;99.90
30037;DHT22;36325;51.512;-0.382;2023-04-03T00:03:52;5.40;99.90
30037;DHT22;36325;51.512;-0.382;2023-04-03T00:06:20;5.30;99.90
30037;DHT22;36325;51.512;-0.382;2023-04-03T00:08:47;5.30;99.90
30037;DHT22;36325;51.512;-0.382;2023-04-03T00:11:15;5.20;99.90
30037;DHT22;36325;51.512;-0.382;2023-04-03T00:13:43;5.10;99.90
30037;DHT22;36325;51.512;-0.382;2023-04-03T00:16:11;5.00;99.90
30037;DHT22;36325;51.512;-0.382;2023-04-03T00:21:08;4.90;99.90
30037;DHT22;36325;51.512;-0.382;2023-04-03T00:23:35;4.80;99.90
30037;DHT22;36325;51.512;-0.382;2023-04-03T00:26:02;4.80;99.90
30037;DHT22;36325;51.512;-0.382;2023-04-03T00:28:30;4.70;99.90
30037;DHT22;36325;51.512;-0.382;2023-04-03T00:30:57;4.70;99.90
30037;DHT22;36325;51.512;-0.382;2023-04-03T00:33:24;4.60;99.90
30037;DHT22;36325;51.512;-0.382;2023-04-03T00:35:51;4.50;99.90
30037;DHT22;36325;51.512;-0.382;2023-04-03T00:40:48;4.40;99.90
30037;DHT22;36325;51.512;-0.382;2023-04-03T00:43:22;4.40;99.90
30037;DHT22;36325;51.512;-0.382;2023-04-03T00:45:51;4.30;99.90
30037;DHT22;36325;51.512;-0.382;2023-04-03T00:48:41;4.30;99.90
30037;DHT22;36325;51.512;-0.382;2023-04-03T00:51:13;4.30;99.90
30037;DHT22;36325;51.512;-0.382;2023-04-03T00:53:50;4.20;99.90
30037;DHT22;36325;51.512;-0.382;2023-04-03T00:56:21;4.20;99.90
30037;DHT22;36325;51.512;-0.382;2023-04-03T00:59:04;4.20;99.90
30037;DHT22;36325;51.512;-0.382;2023-04-03T01:01:32;4.10;99.90
30037;DHT22;36325;51.512;-0.382;2023-04-03T01:04:00;4.10;99.90
30037;DHT22;36325;51.512;-0.382;2023-04-03T01:06:30;4.10;99.90
30037;DHT22;36325;51.512;-0.382;2023-04-03T01:09:05;4.00;99.90
30037;DHT22;36325;51.512;-0.382;2023-04-03T01:11:33;4.10;99.90
30037;DHT22;36325;51.512;-0.382;2023-04-03T01:14:01;4.00;99.90
30037;DHT22;36325;51.512;-0.382;2023-04-03T01:16:29;4.00;99.90
30037;DHT22;36325;51.512;-0.382;2023-04-03T01:19:00;3.90;99.90
30037;DHT22;36325;51.512;-0.382;2023-04-03T01:21:42;3.90;99.90
30037;DHT22;36325;51.512;-0.382;2023-04-03T01:24:22;3.90;99.90
30037;DHT22;36325;51.512;-0.382;2023-04-03T01:29:19;3.80;99.90
30037;DHT22;36325;51.512;-0.382;2023-04-03T01:31:57;3.80;99.90
30037;DHT22;36325;51.512;-0.382;2023-04-03T01:34:26;3.70;99.90
30037;DHT22;36325;51.512;-0.382;2023-04-03T01:36:53;3.70;99.90
30037;DHT22;36325;51.512;-0.382;2023-04-03T01:39:22;3.70;99.90
30037;DHT22;36325;51.512;-0.382;2023-04-03T01:41:50;3.70;99.90
30037;DHT22;36325;51.512;-0.382;2023-04-03T01:44:37;3.70;99.90
30037;DHT22;36325;51.512;-0.382;2023-04-03T01:47:06;3.70;99.90
30037;DHT22;36325;51.512;-0.382;2023-04-03T01:49:35;3.70;99.90
30037;DHT22;36325;51.512;-0.382;2023-04-03T01:52:02;3.60;99.90
30037;DHT22;36325;51.512;-0.382;2023-04-03T01:56:57;3.60;99.90
30037;DHT22;36325;51.512;-0.382;2023-04-03T01:59:25;3.60;99.90
30037;DHT22;36325;51.512;-0.382;2023-04-03T02:01:53;3.60;99.90
30037;DHT22;36325;51.512;-0.382;2023-04-03T02:06:48;3.50;99.90
30037;DHT22;36325;51.512;-0.382;2023-04-03T02:14:10;3.50;99.90
30037;DHT22;36325;51.512;-0.382;2023-04-03T02:16:38;3.50;99.90
30037;DHT22;36325;51.512;-0.382;2023-04-03T02:19:05;3.50;99.90
30037;DHT22;36325;51.512;-0.382;2023-04-03T02:21:32;3.40;99.90
30037;DHT22;36325;51.512;-0.382;2023-04-03T02:24:00;3.40;99.90
30037;DHT22;36325;51.512;-0.382;2023-04-03T02:31:22;3.40;99.90
30037;DHT22;36325;51.512;-0.382;2023-04-03T02:33:51;3.30;99.90
30037;DHT22;36325;51.512;-0.382;2023-04-03T02:36:19;3.30;99.90
30037;DHT22;36325;51.512;-0.382;2023-04-03T02:38:52;3.30;99.90
30037;DHT22;36325;51.512;-0.382;2023-04-03T02:41:19;3.30;99.90
30037;DHT22;36325;51.512;-0.382;2023-04-03T02:43:49;3.30;99.90
30037;DHT22;36325;51.512;-0.382;2023-04-03T02:48:44;3.20;99.90
30037;DHT22;36325;51.512;-0.382;2023-04-03T02:51:12;3.20;99.90
30037;DHT22;36325;51.512;-0.382;2023-04-03T02:53:39;3.20;99.90
30037;DHT22;36325;51.512;-0.382;2023-04-03T02:56:12;3.20;99.90
30037;DHT22;36325;51.512;-0.382;2023-04-03T02:58:39;3.10;99.90
30037;DHT22;36325;51.512;-0.382;2023-04-03T03:03:35;3.00;99.90
30037;DHT22;36325;51.512;-0.382;2023-04-03T03:06:11;3.00;99.90
30037;DHT22;36325;51.512;-0.382;2023-04-03T03:08:40;3.00;99.90
30037;DHT22;36325;51.512;-0.382;2023-04-03T03:11:08;3.00;99.90
30037;DHT22;36325;51.512;-0.382;2023-04-03T03:16:03;2.90;99.90
30037;DHT22;36325;51.512;-0.382;2023-04-03T03:20:59;2.90;99.90
30037;DHT22;36325;51.512;-0.382;2023-04-03T03:23:28;2.90;99.90
30037;DHT22;36325;51.512;-0.382;2023-04-03T03:25:58;2.80;99.90
30037;DHT22;36325;51.512;-0.382;2023-04-03T03:28:25;2.80;99.90
30037;DHT22;36325;51.512;-0.382;2023-04-03T03:30:53;2.70;99.90
30037;DHT22;36325;51.512;-0.382;2023-04-03T03:33:22;2.80;99.90
30037;DHT22;36325;51.512;-0.382;2023-04-03T03:35:49;2.70;99.90
30037;DHT22;36325;51.512;-0.382;2023-04-03T03:38:16;2.70;99.90
30037;DHT22;36325;51.512;-0.382;2023-04-03T03:40:44;2.60;99.90
30037;DHT22;36325;51.512;-0.382;2023-04-03T03:45:39;2.60;99.90
30037;DHT22;36325;51.512;-0.382;2023-04-03T03:48:06;2.60;99.90
30037;DHT22;36325;51.512;-0.382;2023-04-03T03:50:34;2.60;99.90
30037;DHT22;36325;51.512;-0.382;2023-04-03T03:53:01;2.60;99.90
30037;DHT22;36325;51.512;-0.382;2023-04-03T03:55:31;2.50;99.90
30037;DHT22;36325;51.512;-0.382;2023-04-03T03:57:58;2.50;99.90
30037;DHT22;36325;51.512;-0.382;2023-04-03T04:00:30;2.60;99.90
30037;DHT22;36325;51.512;-0.382;2023-04-03T04:02:57;2.40;99.90
30037;DHT22;36325;51.512;-0.382;2023-04-03T04:05:26;2.40;99.90
30037;DHT22;36325;51.512;-0.382;2023-04-03T04:07:54;2.40;99.90
30037;DHT22;36325;51.512;-0.382;2023-04-03T04:10:22;2.30;99.90
30037;DHT22;36325;51.512;-0.382;2023-04-03T04:15:21;2.30;99.90
30037;DHT22;36325;51.512;-0.382;2023-04-03T04:17:50;2.30;99.90
30037;DHT22;36325;51.512;-0.382;2023-04-03T04:25:14;2.30;99.90
30037;DHT22;36325;51.512;-0.382;2023-04-03T04:27:41;2.20;99.90
30037;DHT22;36325;51.512;-0.382;2023-04-03T04:30:11;2.30;99.90
30037;DHT22;36325;51.512;-0.382;2023-04-03T04:32:38;2.20;99.90
30037;DHT22;36325;51.512;-0.382;2023-04-03T04:35:06;2.20;99.90
30037;DHT22;36325;51.512;-0.382;2023-04-03T04:37:37;2.10;99.90
30037;DHT22;36325;51.512;-0.382;2023-04-03T04:40:04;2.40;99.90
30037;DHT22;36325;51.512;-0.382;2023-04-03T04:42:32;2.10;99.90
30037;DHT22;36325;51.512;-0.382;2023-04-03T04:45:00;2.00;99.90
30037;DHT22;36325;51.512;-0.382;2023-04-03T04:47:29;2.00;99.90
30037;DHT22;36325;51.512;-0.382;2023-04-03T04:49:56;2.00;99.90
30037;DHT22;36325;51.512;-0.382;2023-04-03T04:52:24;2.00;99.90
30037;DHT22;36325;51.512;-0.382;2023-04-03T04:54:52;2.00;99.90
30037;DHT22;36325;51.512;-0.382;2023-04-03T04:57:19;2.00;99.90
30037;DHT22;36325;51.512;-0.382;2023-04-03T04:59:46;2.00;99.90
30037;DHT22;36325;51.512;-0.382;2023-04-03T05:02:14;2.00;99.90
30037;DHT22;36325;51.512;-0.382;2023-04-03T05:04:43;2.00;99.90
30037;DHT22;36325;51.512;-0.382;2023-04-03T05:07:16;2.10;99.90
30037;DHT22;36325;51.512;-0.382;2023-04-03T05:09:44;1.20;99.90
30037;DHT22;36325;51.512;-0.382;2023-04-03T05:12:13;2.10;99.90
30037;DHT22;36325;51.512;-0.382;2023-04-03T05:14:47;2.30;99.90
30037;DHT22;36325;51.512;-0.382;2023-04-03T05:17:15;2.30;99.90
30037;DHT22;36325;51.512;-0.382;2023-04-03T05:19:48;2.40;99.90
30037;DHT22;36325;51.512;-0.382;2023-04-03T05:22:17;2.50;99.90
30037;DHT22;36325;51.512;-0.382;2023-04-03T05:24:44;2.50;99.90
30037;DHT22;36325;51.512;-0.382;2023-04-03T05:27:11;2.50;99.90
30037;DHT22;36325;51.512;-0.382;2023-04-03T05:29:43;2.50;99.90
30037;DHT22;36325;51.512;-0.382;2023-04-03T05:32:14;2.50;99.90
30037;DHT22;36325;51.512;-0.382;2023-04-03T05:34:42;2.50;99.90
30037;DHT22;36325;51.512;-0.382;2023-04-03T05:37:09;2.70;99.90
30037;DHT22;36325;51.512;-0.382;2023-04-03T05:39:37;2.70;99.90
30037;DHT22;36325;51.512;-0.382;2023-04-03T05:42:08;2.80;99.90
30037;DHT22;36325;51.512;-0.382;2023-04-03T05:44:35;2.90;99.90
30037;DHT22;36325;51.512;-0.382;2023-04-03T05:47:02;3.00;99.90
30037;DHT22;36325;51.512;-0.382;2023-04-03T05:49:30;3.10;99.90
30037;DHT22;36325;51.512;-0.382;2023-04-03T05:51:57;3.20;99.90
30037;DHT22;36325;51.512;-0.382;2023-04-03T05:54:29;3.40;99.90
30037;DHT22;36325;51.512;-0.382;2023-04-03T05:57:15;3.40;99.90
30037;DHT22;36325;51.512;-0.382;2023-04-03T05:59:43;3.50;99.90
30037;DHT22;36325;51.512;-0.382;2023-04-03T06:02:14;3.60;99.90
30037;DHT22;36325;51.512;-0.382;2023-04-03T06:07:20;3.80;99.90
30037;DHT22;36325;51.512;-0.382;2023-04-03T06:09:50;3.90;99.90
30037;DHT22;36325;51.512;-0.382;2023-04-03T06:12:18;3.90;99.90
30037;DHT22;36325;51.512;-0.382;2023-04-03T06:14:45;3.90;99.90
30037;DHT22;36325;51.512;-0.382;2023-04-03T06:17:15;4.00;99.90
30037;DHT22;36325;51.512;-0.382;2023-04-03T06:22:13;4.30;99.90
30037;DHT22;36325;51.512;-0.382;2023-04-03T06:24:41;4.30;99.90
30037;DHT22;36325;51.512;-0.382;2023-04-03T06:27:10;4.40;99.90
30037;DHT22;36325;51.512;-0.382;2023-04-03T06:29:38;4.50;99.90
30037;DHT22;36325;51.512;-0.382;2023-04-03T06:32:05;4.50;99.90
30037;DHT22;36325;51.512;-0.382;2023-04-03T06:34:32;4.60;99.90
30037;DHT22;36325;51.512;-0.382;2023-04-03T06:39:27;4.70;99.90
30037;DHT22;36325;51.512;-0.382;2023-04-03T06:41:55;6.00;99.90
30037;DHT22;36325;51.512;-0.382;2023-04-03T06:44:32;4.80;99.90
30037;DHT22;36325;51.512;-0.382;2023-04-03T06:49:29;5.00;99.90
30037;DHT22;36325;51.512;-0.382;2023-04-03T06:51:56;5.10;99.90
30037;DHT22;36325;51.512;-0.382;2023-04-03T06:54:25;5.20;99.90
30037;DHT22;36325;51.512;-0.382;2023-04-03T06:56:52;5.20;99.90
30037;DHT22;36325;51.512;-0.382;2023-04-03T06:59:19;5.30;99.90
30037;DHT22;36325;51.512;-0.382;2023-04-03T07:01:47;5.30;99.90
30037;DHT22;36325;51.512;-0.382;2023-04-03T07:04:15;5.50;99.90
30037;DHT22;36325;51.512;-0.382;2023-04-03T07:06:43;5.50;99.90
30037;DHT22;36325;51.512;-0.382;2023-04-03T07:11:38;5.60;99.90
30037;DHT22;36325;51.512;-0.382;2023-04-03T07:14:05;5.70;99.90
30037;DHT22;36325;51.512;-0.382;2023-04-03T07:16:35;5.70;99.90
30037;DHT22;36325;51.512;-0.382;2023-04-03T07:19:02;5.80;99.90
30037;DHT22;36325;51.512;-0.382;2023-04-03T07:21:30;6.00;99.90
30037;DHT22;36325;51.512;-0.382;2023-04-03T07:28:52;6.30;99.90
30037;DHT22;36325;51.512;-0.382;2023-04-03T07:31:20;6.50;99.90
30037;DHT22;36325;51.512;-0.382;2023-04-03T07:33:47;6.50;99.90
30037;DHT22;36325;51.512;-0.382;2023-04-03T07:36:16;6.80;99.90
30037;DHT22;36325;51.512;-0.382;2023-04-03T07:41:15;7.00;99.90
30037;DHT22;36325;51.512;-0.382;2023-04-03T07:43:42;7.10;99.90
30037;DHT22;36325;51.512;-0.382;2023-04-03T07:46:09;7.20;99.90
30037;DHT22;36325;51.512;-0.382;2023-04-03T07:48:37;7.30;99.90
30037;DHT22;36325;51.512;-0.382;2023-04-03T07:51:05;7.40;99.90
30037;DHT22;36325;51.512;-0.382;2023-04-03T07:53:32;7.50;99.90
30037;DHT22;36325;51.512;-0.382;2023-04-03T07:56:00;7.50;99.90
30037;DHT22;36325;51.512;-0.382;2023-04-03T07:58:28;7.50;99.90
30037;DHT22;36325;51.512;-0.382;2023-04-03T08:00:56;7.60;99.90
30037;DHT22;36325;51.512;-0.382;2023-04-03T08:03:23;7.70;99.90
30037;DHT22;36325;51.512;-0.382;2023-04-03T08:05:50;7.70;99.90
30037;DHT22;36325;51.512;-0.382;2023-04-03T08:08:20;7.70;99.90
30037;DHT22;36325;51.512;-0.382;2023-04-03T08:10:50;8.00;99.90
30037;DHT22;36325;51.512;-0.382;2023-04-03T08:15:46;8.50;99.90
30037;DHT22;36325;51.512;-0.382;2023-04-03T08:18:14;9.20;99.90
30037;DHT22;36325;51.512;-0.382;2023-04-03T08:20:42;9.10;99.90
30037;DHT22;36325;51.512;-0.382;2023-04-03T08:25:41;9.10;99.90
30037;DHT22;36325;51.512;-0.382;2023-04-03T08:28:09;8.90;99.90
30037;DHT22;36325;51.512;-0.382;2023-04-03T08:30:41;8.90;99.90
30037;DHT22;36325;51.512;-0.382;2023-04-03T08:33:09;8.90;99.90
30037;DHT22;36325;51.512;-0.382;2023-04-03T08:35:41;9.00;99.90
30037;DHT22;36325;51.512;-0.382;2023-04-03T08:38:09;9.00;99.90
30037;DHT22;36325;51.512;-0.382;2023-04-03T08:40:38;9.30;99.90
30037;DHT22;36325;51.512;-0.382;2023-04-03T08:43:24;10.80;99.90
30037;DHT22;36325;51.512;-0.382;2023-04-03T08:46:00;10.80;99.90
30037;DHT22;36325;51.512;-0.382;2023-04-03T08:48:32;10.60;99.90
30037;DHT22;36325;51.512;-0.382;2023-04-03T08:51:04;10.60;99.90
30037;DHT22;36325;51.512;-0.382;2023-04-03T08:53:40;10.90;99.90
30037;DHT22;36325;51.512;-0.382;2023-04-03T08:56:10;11.50;99.90
30037;DHT22;36325;51.512;-0.382;2023-04-03T08:58:54;12.00;99.90
30037;DHT22;36325;51.512;-0.382;2023-04-03T09:01:36;12.60;99.90
30037;DHT22;36325;51.512;-0.382;2023-04-03T09:04:24;12.60;99.90
30037;DHT22;36325;51.512;-0.382;2023-04-03T09:06:57;12.70;99.90
30037;DHT22;36325;51.512;-0.382;2023-04-03T09:09:39;13.00;99.90
30037;DHT22;36325;51.512;-0.382;2023-04-03T09:12:23;13.00;99.90
30037;DHT22;36325;51.512;-0.382;2023-04-03T09:15:21;13.30;99.90
30037;DHT22;36325;51.512;-0.382;2023-04-03T09:18:19;13.70;99.90
30037;DHT22;36325;51.512;-0.382;2023-04-03T09:23:41;13.90;99.90
30037;DHT22;36325;51.512;-0.382;2023-04-03T09:26:20;14.00;99.90
30037;DHT22;36325;51.512;-0.382;2023-04-03T09:31:25;14.70;99.90
30037;DHT22;36325;51.512;-0.382;2023-04-03T09:34:06;14.90;99.90
30037;DHT22;36325;51.512;-0.382;2023-04-03T09:36:42;15.10;99.90
30037;DHT22;36325;51.512;-0.382;2023-04-03T09:39:18;15.00;99.90
30037;DHT22;36325;51.512;-0.382;2023-04-03T09:42:00;15.30;99.90
30037;DHT22;36325;51.512;-0.382;2023-04-03T09:44:35;15.30;99.90
30037;DHT22;36325;51.512;-0.382;2023-04-03T09:47:27;14.80;99.90
30037;DHT22;36325;51.512;-0.382;2023-04-03T09:52:41;14.20;99.90
30037;DHT22;36325;51.512;-0.382;2023-04-03T09:55:16;13.70;99.90
30037;DHT22;36325;51.512;-0.382;2023-04-03T09:57:45;13.70;99.90
30037;DHT22;36325;51.512;-0.382;2023-04-03T10:00:33;13.70;99.90
30037;DHT22;36325;51.512;-0.382;2023-04-03T10:03:01;13.90;99.90
30037;DHT22;36325;51.512;-0.382;2023-04-03T10:05:36;13.70;99.90
30037;DHT22;36325;51.512;-0.382;2023-04-03T10:10:48;12.90;99.90
30037;DHT22;36325;51.512;-0.382;2023-04-03T10:13:21;12.70;99.90
30037;DHT22;36325;51.512;-0.382;2023-04-03T10:15:54;12.60;99.90
30037;DHT22;36325;51.512;-0.382;2023-04-03T10:18:42;12.40;99.90
30037;DHT22;36325;51.512;-0.382;2023-04-03T10:24:30;12.50;99.90
30037;DHT22;36325;51.512;-0.382;2023-04-03T10:35:34;13.50;99.90
30037;DHT22;36325;51.512;-0.382;2023-04-03T10:38:18;13.60;99.90
30037;DHT22;36325;51.512;-0.382;2023-04-03T10:41:19;14.20;99.90
30037;DHT22;36325;51.512;-0.382;2023-04-03T10:46:41;14.30;99.90
30037;DHT22;36325;51.512;-0.382;2023-04-03T10:49:22;14.00;99.90
30037;DHT22;36325;51.512;-0.382;2023-04-03T10:52:03;14.00;99.90
30037;DHT22;36325;51.512;-0.382;2023-04-03T10:57:55;13.40;99.90
30037;DHT22;36325;51.512;-0.382;2023-04-03T11:00:41;13.30;99.90
30037;DHT22;36325;51.512;-0.382;2023-04-03T11:03:15;13.70;99.90
30037;DHT22;36325;51.512;-0.382;2023-04-03T11:08:35;14.80;99.90
30037;DHT22;36325;51.512;-0.382;2023-04-03T11:11:11;14.80;99.90
30037;DHT22;36325;51.512;-0.382;2023-04-03T11:14:05;15.10;99.90
30037;DHT22;36325;51.512;-0.382;2023-04-03T11:16:33;15.20;99.90
30037;DHT22;36325;51.512;-0.382;2023-04-03T11:19:21;15.00;99.90
30037;DHT22;36325;51.512;-0.382;2023-04-03T11:21:56;15.90;99.90
30037;DHT22;36325;51.512;-0.382;2023-04-03T11:24:32;15.90;99.90
30037;DHT22;36325;51.512;-0.382;2023-04-03T11:27:00;16.40;99.90
30037;DHT22;36325;51.512;-0.382;2023-04-03T11:29:34;16.30;99.90
30037;DHT22;36325;51.512;-0.382;2023-04-03T11:34:52;16.20;99.90
30037;DHT22;36325;51.512;-0.382;2023-04-03T11:37:48;16.20;99.90
30037;DHT22;36325;51.512;-0.382;2023-04-03T11:43:18;18.30;99.90
30037;DHT22;36325;51.512;-0.382;2023-04-03T11:45:54;19.70;99.90
30037;DHT22;36325;51.512;-0.382;2023-04-03T11:50:59;19.20;99.90
30037;DHT22;36325;51.512;-0.382;2023-04-03T12:04:22;21.00;99.90
30037;DHT22;36325;51.512;-0.382;2023-04-03T12:07:16;21.20;99.90
30037;DHT22;36325;51.512;-0.382;2023-04-03T12:12:29;22.30;99.90
30037;DHT22;36325;51.512;-0.382;2023-04-03T12:17:47;24.00;99.90
30037;DHT22;36325;51.512;-0.382;2023-04-03T12:20:54;24.30;99.30
30037;DHT22;36325;51.512;-0.382;2023-04-03T12:23:30;24.50;97.50
30037;DHT22;36325;51.512;-0.382;2023-04-03T12:28:44;23.90;95.70
30037;DHT22;36325;51.512;-0.382;2023-04-03T12:31:13;24.20;95.20
30037;DHT22;36325;51.512;-0.382;2023-04-03T12:39:25;24.20;93.60
30037;DHT22;36325;51.512;-0.382;2023-04-03T12:45:16;24.80;92.40
30037;DHT22;36325;51.512;-0.382;2023-04-03T12:47:45;24.40;91.50
30037;DHT22;36325;51.512;-0.382;2023-04-03T12:50:27;24.40;91.80
30037;DHT22;36325;51.512;-0.382;2023-04-03T12:53:25;24.50;91.80
30037;DHT22;36325;51.512;-0.382;2023-04-03T12:55:55;25.70;89.40
30037;DHT22;36325;51.512;-0.382;2023-04-03T12:58:27;25.60;90.20
30037;DHT22;36325;51.512;-0.382;2023-04-03T13:01:11;26.40;90.40
30037;DHT22;36325;51.512;-0.382;2023-04-03T13:03:43;26.70;85.80
30037;DHT22;36325;51.512;-0.382;2023-04-03T13:06:27;25.90;85.70
30037;DHT22;36325;51.512;-0.382;2023-04-03T13:08:58;25.80;86.10
30037;DHT22;36325;51.512;-0.382;2023-04-03T13:11:32;26.10;87.80
30037;DHT22;36325;51.512;-0.382;2023-04-03T13:14:03;26.70;86.50
30037;DHT22;36325;51.512;-0.382;2023-04-03T13:16:32;27.30;83.90
30037;DHT22;36325;51.512;-0.382;2023-04-03T13:19:00;27.10;80.90
30037;DHT22;36325;51.512;-0.382;2023-04-03T13:21:29;25.70;78.70
30037;DHT22;36325;51.512;-0.382;2023-04-03T13:24:00;25.70;79.50
30037;DHT22;36325;51.512;-0.382;2023-04-03T13:26:40;24.90;80.40
30037;DHT22;36325;51.512;-0.382;2023-04-03T13:29:39;25.80;82.30
30037;DHT22;36325;51.512;-0.382;2023-04-03T13:32:06;26.50;80.30
30037;DHT22;36325;51.512;-0.382;2023-04-03T13:34:41;26.80;76.90
30037;DHT22;36325;51.512;-0.382;2023-04-03T13:37:31;26.70;77.00
30037;DHT22;36325;51.512;-0.382;2023-04-03T13:42:38;26.30;78.40
30037;DHT22;36325;51.512;-0.382;2023-04-03T13:45:23;26.10;74.20
30037;DHT22;36325;51.512;-0.382;2023-04-03T13:48:07;26.00;74.00
30037;DHT22;36325;51.512;-0.382;2023-04-03T13:50:58;25.80;74.30
30037;DHT22;36325;51.512;-0.382;2023-04-03T13:53:32;26.00;74.10
30037;DHT22;36325;51.512;-0.382;2023-04-03T13:58:32;26.20;73.60
30037;DHT22;36325;51.512;-0.382;2023-04-03T14:01:18;26.80;71.60
30037;DHT22;36325;51.512;-0.382;2023-04-03T14:03:59;27.10;71.00
30037;DHT22;36325;51.512;-0.382;2023-04-03T14:06:29;27.10;71.50
30037;DHT22;36325;51.512;-0.382;2023-04-03T14:08:56;27.40;71.10
30037;DHT22;36325;51.512;-0.382;2023-04-03T14:11:29;27.60;69.90
30037;DHT22;36325;51.512;-0.382;2023-04-03T14:14:02;27.70;70.80
30037;DHT22;36325;51.512;-0.382;2023-04-03T14:16:38;27.90;69.70
30037;DHT22;36325;51.512;-0.382;2023-04-03T14:19:06;27.10;68.00
30037;DHT22;36325;51.512;-0.382;2023-04-03T14:21:34;27.60;67.10
30037;DHT22;36325;51.512;-0.382;2023-04-03T14:24:01;27.70;67.90
30037;DHT22;36325;51.512;-0.382;2023-04-03T14:26:30;27.40;67.40
30037;DHT22;36325;51.512;-0.382;2023-04-03T14:29:00;29.00;69.00
30037;DHT22;36325;51.512;-0.382;2023-04-03T14:31:28;28.80;67.60
30037;DHT22;36325;51.512;-0.382;2023-04-03T14:33:55;28.80;66.10
30037;DHT22;36325;51.512;-0.382;2023-04-03T14:36:25;28.70;65.70
30037;DHT22;36325;51.512;-0.382;2023-04-03T14:38:55;27.90;64.30
30037;DHT22;36325;51.512;-0.382;2023-04-03T14:41:24;27.30;65.60
30037;DHT22;36325;51.512;-0.382;2023-04-03T14:43:52;27.70;66.50
30037;DHT22;36325;51.512;-0.382;2023-04-03T14:46:29;27.70;67.30
30037;DHT22;36325;51.512;-0.382;2023-04-03T14:49:19;28.00;66.50
30037;DHT22;36325;51.512;-0.382;2023-04-03T14:51:48;27.90;65.50
30037;DHT22;36325;51.512;-0.382;2023-04-03T14:54:18;27.20;66.00
30037;DHT22;36325;51.512;-0.382;2023-04-03T14:56:48;26.80;64.90
30037;DHT22;36325;51.512;-0.382;2023-04-03T14:59:16;26.70;66.00
30037;DHT22;36325;51.512;-0.382;2023-04-03T15:01:46;27.10;65.20
30037;DHT22;36325;51.512;-0.382;2023-04-03T15:04:15;29.30;65.50
30037;DHT22;36325;51.512;-0.382;2023-04-03T15:06:44;27.60;64.20
30037;DHT22;36325;51.512;-0.382;2023-04-03T15:09:23;28.00;63.80
30037;DHT22;36325;51.512;-0.382;2023-04-03T15:11:51;27.90;63.00
30037;DHT22;36325;51.512;-0.382;2023-04-03T15:14:19;28.10;63.70
30037;DHT22;36325;51.512;-0.382;2023-04-03T15:16:55;27.80;63.90
30037;DHT22;36325;51.512;-0.382;2023-04-03T15:19:23;27.30;64.00
30037;DHT22;36325;51.512;-0.382;2023-04-03T15:21:53;26.90;64.20
30037;DHT22;36325;51.512;-0.382;2023-04-03T15:24:21;26.70;65.30
30037;DHT22;36325;51.512;-0.382;2023-04-03T15:26:48;25.70;63.80
30037;DHT22;36325;51.512;-0.382;2023-04-03T15:29:16;25.60;64.70
30037;DHT22;36325;51.512;-0.382;2023-04-03T15:31:43;25.10;65.60
30037;DHT22;36325;51.512;-0.382;2023-04-03T15:34:10;25.30;65.90
30037;DHT22;36325;51.512;-0.382;2023-04-03T15:36:38;25.50;66.00
30037;DHT22;36325;51.512;-0.382;2023-04-03T15:39:05;25.70;66.40
30037;DHT22;36325;51.512;-0.382;2023-04-03T15:41:32;25.70;66.40
30037;DHT22;36325;51.512;-0.382;2023-04-03T15:43:59;25.80;66.50
30037;DHT22;36325;51.512;-0.382;2023-04-03T15:46:27;24.90;67.30
30037;DHT22;36325;51.512;-0.382;2023-04-03T15:48:54;24.90;67.50
30037;DHT22;36325;51.512;-0.382;2023-04-03T15:51:22;24.10;67.60
30037;DHT22;36325;51.512;-0.382;2023-04-03T15:53:49;24.10;68.40
30037;DHT22;36325;51.512;-0.382;2023-04-03T15:56:16;24.30;69.20
30037;DHT22;36325;51.512;-0.382;2023-04-03T15:58:44;24.30;70.20
30037;DHT22;36325;51.512;-0.382;2023-04-03T16:01:11;24.70;70.50
30037;DHT22;36325;51.512;-0.382;2023-04-03T16:03:40;24.70;69.10
30037;DHT22;36325;51.512;-0.382;2023-04-03T16:06:16;24.60;70.10
30037;DHT22;36325;51.512;-0.382;2023-04-03T16:08:45;24.50;68.90
30037;DHT22;36325;51.512;-0.382;2023-04-03T16:11:13;24.30;68.00
30037;DHT22;36325;51.512;-0.382;2023-04-03T16:13:40;24.20;68.80
30037;DHT22;36325;51.512;-0.382;2023-04-03T16:16:08;23.80;69.30
30037;DHT22;36325;51.512;-0.382;2023-04-03T16:18:35;23.60;68.30
30037;DHT22;36325;51.512;-0.382;2023-04-03T16:21:04;23.40;67.70
30037;DHT22;36325;51.512;-0.382;2023-04-03T16:23:35;23.30;68.30
30037;DHT22;36325;51.512;-0.382;2023-04-03T16:26:03;23.20;69.20
30037;DHT22;36325;51.512;-0.382;2023-04-03T16:28:31;23.10;69.00
30037;DHT22;36325;51.512;-0.382;2023-04-03T16:31:00;22.80;68.60
30037;DHT22;36325;51.512;-0.382;2023-04-03T16:33:29;22.70;69.60
30037;DHT22;36325;51.512;-0.382;2023-04-03T16:35:57;22.60;70.60
30037;DHT22;36325;51.512;-0.382;2023-04-03T16:38:24;22.50;71.70
30037;DHT22;36325;51.512;-0.382;2023-04-03T16:40:52;22.60;72.60
30037;DHT22;36325;51.512;-0.382;2023-04-03T16:43:23;22.60;73.10
30037;DHT22;36325;51.512;-0.382;2023-04-03T16:45:50;22.60;73.30
30037;DHT22;36325;51.512;-0.382;2023-04-03T16:48:18;22.70;71.80
30037;DHT22;36325;51.512;-0.382;2023-04-03T16:50:48;22.60;72.60
30037;DHT22;36325;51.512;-0.382;2023-04-03T16:53:17;21.40;72.40
30037;DHT22;36325;51.512;-0.382;2023-04-03T16:55:44;21.30;73.30
30037;DHT22;36325;51.512;-0.382;2023-04-03T16:58:12;21.10;74.20
30037;DHT22;36325;51.512;-0.382;2023-04-03T17:00:39;21.10;74.00
30037;DHT22;36325;51.512;-0.382;2023-04-03T17:06:22;20.80;74.20
30037;DHT22;36325;51.512;-0.382;2023-04-03T17:08:51;20.50;74.90
30037;DHT22;36325;51.512;-0.382;2023-04-03T17:11:29;20.40;75.90
30037;DHT22;36325;51.512;-0.382;2023-04-03T17:13:57;19.40;75.30
30037;DHT22;36325;51.512;-0.382;2023-04-03T17:16:25;19.00;75.60
30037;DHT22;36325;51.512;-0.382;2023-04-03T17:18:53;18.90;76.40
30037;DHT22;36325;51.512;-0.382;2023-04-03T17:21:21;18.70;77.10
30037;DHT22;36325;51.512;-0.382;2023-04-03T17:23:55;18.30;76.30
30037;DHT22;36325;51.512;-0.382;2023-04-03T17:26:25;18.00;76.50
30037;DHT22;36325;51.512;-0.382;2023-04-03T17:28:53;18.00;76.70
30037;DHT22;36325;51.512;-0.382;2023-04-03T17:31:20;18.10;75.90
30037;DHT22;36325;51.512;-0.382;2023-04-03T17:33:47;18.10;76.80
30037;DHT22;36325;51.512;-0.382;2023-04-03T17:36:15;18.10;76.40
30037;DHT22;36325;51.512;-0.382;2023-04-03T17:38:42;18.00;76.60
30037;DHT22;36325;51.512;-0.382;2023-04-03T17:41:11;17.60;76.50
30037;DHT22;36325;51.512;-0.382;2023-04-03T17:43:40;17.30;77.00
30037;DHT22;36325;51.512;-0.382;2023-04-03T17:46:09;17.20;77.60
30037;DHT22;36325;51.512;-0.382;2023-04-03T17:48:39;16.90;78.20
30037;DHT22;36325;51.512;-0.382;2023-04-03T17:51:10;16.50;78.90
30037;DHT22;36325;51.512;-0.382;2023-04-03T17:53:40;16.20;79.10
30037;DHT22;36325;51.512;-0.382;2023-04-03T17:56:09;16.30;79.80
30037;DHT22;36325;51.512;-0.382;2023-04-03T17:58:36;16.10;77.90
30037;DHT22;36325;51.512;-0.382;2023-04-03T18:01:18;15.90;77.70
30037;DHT22;36325;51.512;-0.382;2023-04-03T18:03:47;15.60;77.20
30037;DHT22;36325;51.512;-0.382;2023-04-03T18:06:17;15.30;77.80
30037;DHT22;36325;51.512;-0.382;2023-04-03T18:08:50;15.10;78.30
30037;DHT22;36325;51.512;-0.382;2023-04-03T18:11:19;14.90;79.20